sensor_id;sensor_type;location;lat;lon;timestamp;P1;durP1;ratioP1;P2;durP2;ratioP2
2173;SDS011;1093;51.424;11.764;2023-12-20T00:09:16;4.67;;;4.20;;
2173;SDS011;1093;51.424;11.764;2023-12-20T01:19:14;5.00;;;4.50;;
2173;SDS011;1093;51.424;11.764;2023-12-20T02:08:35;5.70;;;4.50;;
2173;SDS011;1093;51.424;11.764;2023-12-20T02:14:22;4.73;;;4.27;;
2173;SDS011;1093;51.424;11.764;2023-12-20T02:17:03;7.53;;;5.50;;
2173;SDS011;1093;51.424;11.764;2023-12-20T02:23:37;5.47;;;4.70;;
2173;SDS011;1093;51.424;11.764;2023-12-20T02:26:04;5.67;;;4.30;;
2173;SDS011;1093;51.424;11.764;2023-12-20T02:28:32;4.93;;;4.27;;
2173;SDS011;1093;51.424;11.764;2023-12-20T02:31:00;4.33;;;3.63;;
2173;SDS011;1093;51.424;11.764;2023-12-20T02:33:28;6.37;;;5.27;;
2173;SDS011;1093;51.424;11.764;2023-12-20T02:35:54;7.07;;;4.70;;
2173;SDS011;1093;51.424;11.764;2023-12-20T02:38:21;4.37;;;3.90;;
2173;SDS011;1093;51.424;11.764;2023-12-20T02:40:49;4.57;;;4.17;;
2173;SDS011;1093;51.424;11.764;2023-12-20T02:43:16;6.10;;;4.90;;
2173;SDS011;1093;51.424;11.764;2023-12-20T02:45:43;4.53;;;4.13;;
2173;SDS011;1093;51.424;11.764;2023-12-20T02:48:10;5.33;;;4.33;;
2173;SDS011;1093;51.424;11.764;2023-12-20T02:50:36;5.17;;;4.07;;
2173;SDS011;1093;51.424;11.764;2023-12-20T02:53:03;4.80;;;4.13;;
2173;SDS011;1093;51.424;11.764;2023-12-20T02:55:30;4.83;;;4.30;;
2173;SDS011;1093;51.424;11.764;2023-12-20T02:57:57;4.83;;;4.33;;
2173;SDS011;1093;51.424;11.764;2023-12-20T03:00:24;4.53;;;3.87;;
2173;SDS011;1093;51.424;11.764;2023-12-20T03:02:51;5.63;;;4.00;;
2173;SDS011;1093;51.424;11.764;2023-12-20T03:05:18;5.50;;;4.83;;
2173;SDS011;1093;51.424;11.764;2023-12-20T03:07:45;4.77;;;4.37;;
2173;SDS011;1093;51.424;11.764;2023-12-20T03:10:14;5.50;;;4.90;;
2173;SDS011;1093;51.424;11.764;2023-12-20T03:12:41;5.50;;;4.80;;
2173;SDS011;1093;51.424;11.764;2023-12-20T03:15:09;5.70;;;4.00;;
2173;SDS011;1093;51.424;11.764;2023-12-20T03:17:36;5.33;;;4.43;;
2173;SDS011;1093;51.424;11.764;2023-12-20T03:20:04;5.40;;;4.77;;
2173;SDS011;1093;51.424;11.764;2023-12-20T03:22:32;5.00;;;4.00;;
2173;SDS011;1093;51.424;11.764;2023-12-20T03:24:59;4.40;;;4.00;;
2173;SDS011;1093;51.424;11.764;2023-12-20T03:27:26;6.87;;;5.37;;
2173;SDS011;1093;51.424;11.764;2023-12-20T03:29:53;4.70;;;4.30;;
2173;SDS011;1093;51.424;11.764;2023-12-20T03:32:21;6.80;;;5.60;;
2173;SDS011;1093;51.424;11.764;2023-12-20T03:34:48;4.70;;;4.30;;
2173;SDS011;1093;51.424;11.764;2023-12-20T03:37:18;6.20;;;5.00;;
2173;SDS011;1093;51.424;11.764;2023-12-20T03:39:49;5.50;;;5.00;;
2173;SDS011;1093;51.424;11.764;2023-12-20T03:42:27;6.07;;;5.43;;
2173;SDS011;1093;51.424;11.764;2023-12-20T03:44:56;6.83;;;4.87;;
2173;SDS011;1093;51.424;11.764;2023-12-20T03:47:39;5.90;;;5.00;;
2173;SDS011;1093;51.424;11.764;2023-12-20T03:50:06;5.67;;;4.97;;
2173;SDS011;1093;51.424;11.764;2023-12-20T03:52:33;8.93;;;5.50;;
2173;SDS011;1093;51.424;11.764;2023-12-20T03:55:04;7.17;;;5.10;;
2173;SDS011;1093;51.424;11.764;2023-12-20T03:57:56;7.83;;;5.37;;
2173;SDS011;1093;51.424;11.764;2023-12-20T04:00:35;6.40;;;4.60;;
2173;SDS011;1093;51.424;11.764;2023-12-20T04:03:11;4.80;;;4.40;;
2173;SDS011;1093;51.424;11.764;2023-12-20T04:05:57;5.37;;;4.70;;
2173;SDS011;1093;51.424;11.764;2023-12-20T04:11:48;4.43;;;4.00;;
2173;SDS011;1093;51.424;11.764;2023-12-20T04:15:43;4.87;;;4.37;;
2173;SDS011;1093;51.424;11.764;2023-12-20T04:34:04;5.80;;;4.70;;
2173;SDS011;1093;51.424;11.764;2023-12-20T04:36:42;5.07;;;3.97;;
2173;SDS011;1093;51.424;11.764;2023-12-20T04:45:27;3.87;;;3.47;;
2173;SDS011;1093;51.424;11.764;2023-12-20T04:48:12;3.97;;;3.50;;
2173;SDS011;1093;51.424;11.764;2023-12-20T04:54:38;3.97;;;3.60;;
2173;SDS011;1093;51.424;11.764;2023-12-20T05:01:01;3.20;;;2.90;;
2173;SDS011;1093;51.424;11.764;2023-12-20T05:04:03;3.40;;;3.07;;
2173;SDS011;1093;51.424;11.764;2023-12-20T05:13:27;3.17;;;2.90;;
2173;SDS011;1093;51.424;11.764;2023-12-20T05:16:01;9.07;;;4.33;;
2173;SDS011;1093;51.424;11.764;2023-12-20T05:18:44;5.77;;;4.33;;
2173;SDS011;1093;51.424;11.764;2023-12-20T05:21:26;6.93;;;4.40;;
2173;SDS011;1093;51.424;11.764;2023-12-20T05:26:46;9.00;;;6.80;;
2173;SDS011;1093;51.424;11.764;2023-12-20T05:32:17;7.27;;;5.53;;
2173;SDS011;1093;51.424;11.764;2023-12-20T05:38:23;8.33;;;5.00;;
2173;SDS011;1093;51.424;11.764;2023-12-20T05:41:32;6.30;;;5.40;;
2173;SDS011;1093;51.424;11.764;2023-12-20T06:47:36;7.00;;;3.07;;
2173;SDS011;1093;51.424;11.764;2023-12-20T06:50:03;9.27;;;3.53;;
2173;SDS011;1093;51.424;11.764;2023-12-20T06:52:30;8.13;;;3.27;;
2173;SDS011;1093;51.424;11.764;2023-12-20T06:54:57;5.70;;;2.63;;
2173;SDS011;1093;51.424;11.764;2023-12-20T06:57:24;6.10;;;3.53;;
2173;SDS011;1093;51.424;11.764;2023-12-20T06:59:51;4.80;;;2.10;;
2173;SDS011;1093;51.424;11.764;2023-12-20T07:02:18;6.93;;;2.43;;
2173;SDS011;1093;51.424;11.764;2023-12-20T07:04:47;6.23;;;2.10;;
2173;SDS011;1093;51.424;11.764;2023-12-20T07:07:14;6.10;;;2.67;;
2173;SDS011;1093;51.424;11.764;2023-12-20T07:09:41;3.77;;;2.10;;
2173;SDS011;1093;51.424;11.764;2023-12-20T07:12:08;3.23;;;2.03;;
2173;SDS011;1093;51.424;11.764;2023-12-20T07:14:35;6.10;;;3.10;;
2173;SDS011;1093;51.424;11.764;2023-12-20T07:17:02;5.77;;;3.03;;
2173;SDS011;1093;51.424;11.764;2023-12-20T07:19:29;3.97;;;2.40;;
2173;SDS011;1093;51.424;11.764;2023-12-20T07:21:59;3.77;;;2.60;;
2173;SDS011;1093;51.424;11.764;2023-12-20T07:24:26;4.33;;;2.10;;
2173;SDS011;1093;51.424;11.764;2023-12-20T07:26:52;2.60;;;2.17;;
2173;SDS011;1093;51.424;11.764;2023-12-20T07:29:19;4.00;;;2.23;;
2173;SDS011;1093;51.424;11.764;2023-12-20T07:31:46;4.20;;;2.13;;
2173;SDS011;1093;51.424;11.764;2023-12-20T07:34:13;6.27;;;2.20;;
2173;SDS011;1093;51.424;11.764;2023-12-20T07:36:39;8.00;;;3.27;;
2173;SDS011;1093;51.424;11.764;2023-12-20T07:39:07;5.93;;;3.00;;
2173;SDS011;1093;51.424;11.764;2023-12-20T07:41:35;6.87;;;2.30;;
2173;SDS011;1093;51.424;11.764;2023-12-20T07:44:01;6.07;;;4.10;;
2173;SDS011;1093;51.424;11.764;2023-12-20T07:46:28;12.43;;;2.50;;
2173;SDS011;1093;51.424;11.764;2023-12-20T07:48:55;4.93;;;2.23;;
2173;SDS011;1093;51.424;11.764;2023-12-20T07:51:21;6.57;;;3.20;;
2173;SDS011;1093;51.424;11.764;2023-12-20T07:53:48;3.97;;;2.93;;
2173;SDS011;1093;51.424;11.764;2023-12-20T07:56:17;7.10;;;2.43;;
2173;SDS011;1093;51.424;11.764;2023-12-20T07:58:45;2.53;;;1.90;;
2173;SDS011;1093;51.424;11.764;2023-12-20T08:01:15;5.17;;;2.00;;
2173;SDS011;1093;51.424;11.764;2023-12-20T08:03:43;2.60;;;2.40;;
2173;SDS011;1093;51.424;11.764;2023-12-20T08:06:12;3.87;;;1.77;;
2173;SDS011;1093;51.424;11.764;2023-12-20T08:08:39;5.37;;;2.37;;
2173;SDS011;1093;51.424;11.764;2023-12-20T08:11:06;6.93;;;2.70;;
2173;SDS011;1093;51.424;11.764;2023-12-20T08:13:34;8.13;;;3.80;;
2173;SDS011;1093;51.424;11.764;2023-12-20T08:16:01;7.93;;;3.27;;
2173;SDS011;1093;51.424;11.764;2023-12-20T08:18:29;3.70;;;2.70;;
2173;SDS011;1093;51.424;11.764;2023-12-20T08:20:56;4.53;;;4.13;;
2173;SDS011;1093;51.424;11.764;2023-12-20T08:23:22;5.87;;;2.80;;
2173;SDS011;1093;51.424;11.764;2023-12-20T08:25:49;9.10;;;2.40;;
2173;SDS011;1093;51.424;11.764;2023-12-20T08:28:16;3.57;;;2.57;;
2173;SDS011;1093;51.424;11.764;2023-12-20T08:30:45;8.90;;;2.60;;
2173;SDS011;1093;51.424;11.764;2023-12-20T08:33:11;8.50;;;2.90;;
2173;SDS011;1093;51.424;11.764;2023-12-20T08:35:38;4.33;;;2.60;;
2173;SDS011;1093;51.424;11.764;2023-12-20T08:38:05;5.07;;;2.30;;
2173;SDS011;1093;51.424;11.764;2023-12-20T08:40:32;7.67;;;2.33;;
2173;SDS011;1093;51.424;11.764;2023-12-20T08:42:59;5.40;;;2.73;;
2173;SDS011;1093;51.424;11.764;2023-12-20T08:45:26;5.13;;;2.57;;
2173;SDS011;1093;51.424;11.764;2023-12-20T08:47:54;2.90;;;2.10;;
2173;SDS011;1093;51.424;11.764;2023-12-20T08:50:20;4.53;;;3.37;;
2173;SDS011;1093;51.424;11.764;2023-12-20T08:52:47;3.90;;;2.60;;
2173;SDS011;1093;51.424;11.764;2023-12-20T08:55:14;7.77;;;3.23;;
2173;SDS011;1093;51.424;11.764;2023-12-20T08:57:43;3.87;;;2.70;;
2173;SDS011;1093;51.424;11.764;2023-12-20T09:00:10;3.67;;;3.30;;
2173;SDS011;1093;51.424;11.764;2023-12-20T09:02:38;4.53;;;2.70;;
2173;SDS011;1093;51.424;11.764;2023-12-20T09:05:06;9.47;;;3.27;;
2173;SDS011;1093;51.424;11.764;2023-12-20T09:07:33;10.10;;;3.40;;
2173;SDS011;1093;51.424;11.764;2023-12-20T09:10:00;6.43;;;2.90;;
2173;SDS011;1093;51.424;11.764;2023-12-20T09:12:27;6.03;;;2.70;;
2173;SDS011;1093;51.424;11.764;2023-12-20T09:14:54;9.73;;;3.60;;
2173;SDS011;1093;51.424;11.764;2023-12-20T09:17:21;7.40;;;3.00;;
2173;SDS011;1093;51.424;11.764;2023-12-20T09:19:48;8.27;;;3.40;;
2173;SDS011;1093;51.424;11.764;2023-12-20T09:22:18;4.73;;;3.60;;
2173;SDS011;1093;51.424;11.764;2023-12-20T09:24:45;4.20;;;3.07;;
2173;SDS011;1093;51.424;11.764;2023-12-20T09:27:12;4.70;;;3.30;;
2173;SDS011;1093;51.424;11.764;2023-12-20T09:29:39;6.40;;;3.63;;
2173;SDS011;1093;51.424;11.764;2023-12-20T09:32:05;5.53;;;3.30;;
2173;SDS011;1093;51.424;11.764;2023-12-20T09:34:33;4.47;;;3.20;;
2173;SDS011;1093;51.424;11.764;2023-12-20T09:36:59;7.37;;;4.27;;
2173;SDS011;1093;51.424;11.764;2023-12-20T09:39:29;4.87;;;2.90;;
2173;SDS011;1093;51.424;11.764;2023-12-20T09:41:59;6.70;;;3.77;;
2173;SDS011;1093;51.424;11.764;2023-12-20T09:44:27;4.20;;;3.80;;
2173;SDS011;1093;51.424;11.764;2023-12-20T09:46:54;5.73;;;3.63;;
2173;SDS011;1093;51.424;11.764;2023-12-20T09:49:22;12.70;;;3.93;;
2173;SDS011;1093;51.424;11.764;2023-12-20T09:51:49;6.23;;;3.53;;
2173;SDS011;1093;51.424;11.764;2023-12-20T09:54:17;3.40;;;3.10;;
2173;SDS011;1093;51.424;11.764;2023-12-20T09:56:46;4.30;;;3.70;;
2173;SDS011;1093;51.424;11.764;2023-12-20T09:59:13;7.47;;;3.70;;
2173;SDS011;1093;51.424;11.764;2023-12-20T10:01:40;6.37;;;3.53;;
2173;SDS011;1093;51.424;11.764;2023-12-20T10:04:09;9.43;;;3.67;;
2173;SDS011;1093;51.424;11.764;2023-12-20T10:06:38;5.60;;;4.00;;
2173;SDS011;1093;51.424;11.764;2023-12-20T10:09:06;11.97;;;3.90;;
2173;SDS011;1093;51.424;11.764;2023-12-20T10:11:32;7.70;;;4.03;;
2173;SDS011;1093;51.424;11.764;2023-12-20T10:14:03;7.40;;;4.90;;
2173;SDS011;1093;51.424;11.764;2023-12-20T10:16:30;8.43;;;4.57;;
2173;SDS011;1093;51.424;11.764;2023-12-20T10:18:58;7.97;;;3.80;;
2173;SDS011;1093;51.424;11.764;2023-12-20T10:21:26;8.40;;;3.60;;
2173;SDS011;1093;51.424;11.764;2023-12-20T10:23:53;7.00;;;3.53;;
2173;SDS011;1093;51.424;11.764;2023-12-20T10:26:20;7.17;;;4.00;;
2173;SDS011;1093;51.424;11.764;2023-12-20T10:28:49;6.47;;;4.10;;
2173;SDS011;1093;51.424;11.764;2023-12-20T10:34:00;11.67;;;3.53;;
2173;SDS011;1093;51.424;11.764;2023-12-20T10:36:29;10.10;;;4.30;;
2173;SDS011;1093;51.424;11.764;2023-12-20T10:38:57;6.00;;;4.63;;
2173;SDS011;1093;51.424;11.764;2023-12-20T10:41:25;6.20;;;3.87;;
2173;SDS011;1093;51.424;11.764;2023-12-20T10:43:55;6.90;;;3.97;;
2173;SDS011;1093;51.424;11.764;2023-12-20T10:46:24;8.00;;;3.33;;
2173;SDS011;1093;51.424;11.764;2023-12-20T10:48:54;4.57;;;3.80;;
2173;SDS011;1093;51.424;11.764;2023-12-20T10:51:21;4.87;;;3.17;;
2173;SDS011;1093;51.424;11.764;2023-12-20T10:53:49;9.43;;;4.60;;
2173;SDS011;1093;51.424;11.764;2023-12-20T10:56:17;6.10;;;3.30;;
2173;SDS011;1093;51.424;11.764;2023-12-20T10:58:44;6.67;;;3.27;;
2173;SDS011;1093;51.424;11.764;2023-12-20T11:01:13;12.60;;;4.37;;
2173;SDS011;1093;51.424;11.764;2023-12-20T11:03:43;9.20;;;3.97;;
2173;SDS011;1093;51.424;11.764;2023-12-20T11:06:15;6.40;;;3.50;;
2173;SDS011;1093;51.424;11.764;2023-12-20T11:08:56;10.30;;;4.10;;
2173;SDS011;1093;51.424;11.764;2023-12-20T11:11:35;4.20;;;2.97;;
2173;SDS011;1093;51.424;11.764;2023-12-20T11:14:11;5.67;;;3.83;;
2173;SDS011;1093;51.424;11.764;2023-12-20T11:16:42;4.73;;;3.10;;
2173;SDS011;1093;51.424;11.764;2023-12-20T11:19:09;3.70;;;2.83;;
2173;SDS011;1093;51.424;11.764;2023-12-20T11:21:40;7.20;;;4.07;;
2173;SDS011;1093;51.424;11.764;2023-12-20T11:24:07;9.60;;;3.43;;
2173;SDS011;1093;51.424;11.764;2023-12-20T11:26:34;11.27;;;3.77;;
2173;SDS011;1093;51.424;11.764;2023-12-20T11:31:59;4.43;;;3.67;;
2173;SDS011;1093;51.424;11.764;2023-12-20T11:34:27;7.67;;;3.10;;
2173;SDS011;1093;51.424;11.764;2023-12-20T11:36:59;6.80;;;3.50;;
2173;SDS011;1093;51.424;11.764;2023-12-20T11:39:28;4.20;;;3.00;;
2173;SDS011;1093;51.424;11.764;2023-12-20T11:41:56;5.40;;;3.20;;
2173;SDS011;1093;51.424;11.764;2023-12-20T11:44:30;3.47;;;3.17;;
2173;SDS011;1093;51.424;11.764;2023-12-20T11:46:57;6.73;;;3.20;;
2173;SDS011;1093;51.424;11.764;2023-12-20T11:49:24;4.60;;;3.23;;
2173;SDS011;1093;51.424;11.764;2023-12-20T11:51:50;6.43;;;2.87;;
2173;SDS011;1093;51.424;11.764;2023-12-20T11:54:19;7.83;;;3.33;;
2173;SDS011;1093;51.424;11.764;2023-12-20T11:56:45;8.50;;;3.47;;
2173;SDS011;1093;51.424;11.764;2023-12-20T11:59:13;4.33;;;2.97;;
2173;SDS011;1093;51.424;11.764;2023-12-20T12:01:40;4.63;;;2.90;;
2173;SDS011;1093;51.424;11.764;2023-12-20T12:04:13;3.03;;;2.73;;
2173;SDS011;1093;51.424;11.764;2023-12-20T12:06:40;9.40;;;3.67;;
2173;SDS011;1093;51.424;11.764;2023-12-20T12:09:07;6.40;;;3.33;;
2173;SDS011;1093;51.424;11.764;2023-12-20T12:11:36;5.20;;;3.63;;
2173;SDS011;1093;51.424;11.764;2023-12-20T12:14:03;5.27;;;3.20;;
2173;SDS011;1093;51.424;11.764;2023-12-20T12:16:30;7.73;;;3.20;;
2173;SDS011;1093;51.424;11.764;2023-12-20T12:18:57;3.97;;;3.37;;
2173;SDS011;1093;51.424;11.764;2023-12-20T12:21:24;9.43;;;3.40;;
2173;SDS011;1093;51.424;11.764;2023-12-20T12:23:51;5.93;;;2.87;;
2173;SDS011;1093;51.424;11.764;2023-12-20T12:26:18;7.23;;;3.20;;
2173;SDS011;1093;51.424;11.764;2023-12-20T12:28:46;5.83;;;3.40;;
2173;SDS011;1093;51.424;11.764;2023-12-20T12:31:13;5.90;;;2.63;;
2173;SDS011;1093;51.424;11.764;2023-12-20T12:33:41;5.70;;;3.40;;
2173;SDS011;1093;51.424;11.764;2023-12-20T12:36:09;5.33;;;2.80;;
2173;SDS011;1093;51.424;11.764;2023-12-20T12:38:36;7.40;;;3.17;;
2173;SDS011;1093;51.424;11.764;2023-12-20T12:41:04;7.80;;;3.23;;
2173;SDS011;1093;51.424;11.764;2023-12-20T12:43:31;9.60;;;2.90;;
2173;SDS011;1093;51.424;11.764;2023-12-20T12:45:59;12.07;;;3.57;;
2173;SDS011;1093;51.424;11.764;2023-12-20T12:48:26;10.33;;;2.83;;
2173;SDS011;1093;51.424;11.764;2023-12-20T12:50:53;6.90;;;3.20;;
2173;SDS011;1093;51.424;11.764;2023-12-20T12:53:24;5.67;;;3.30;;
2173;SDS011;1093;51.424;11.764;2023-12-20T12:55:51;4.47;;;2.80;;
2173;SDS011;1093;51.424;11.764;2023-12-20T12:58:18;4.47;;;2.93;;
2173;SDS011;1093;51.424;11.764;2023-12-20T13:00:44;8.67;;;3.33;;
2173;SDS011;1093;51.424;11.764;2023-12-20T13:03:13;2.83;;;2.20;;
2173;SDS011;1093;51.424;11.764;2023-12-20T13:05:40;10.20;;;2.83;;
2173;SDS011;1093;51.424;11.764;2023-12-20T13:08:06;6.37;;;2.67;;
2173;SDS011;1093;51.424;11.764;2023-12-20T13:10:34;13.90;;;6.07;;
2173;SDS011;1093;51.424;11.764;2023-12-20T13:13:01;5.67;;;3.07;;
2173;SDS011;1093;51.424;11.764;2023-12-20T13:15:29;3.03;;;2.73;;
2173;SDS011;1093;51.424;11.764;2023-12-20T13:17:56;5.23;;;2.93;;
2173;SDS011;1093;51.424;11.764;2023-12-20T13:20:24;7.50;;;3.03;;
2173;SDS011;1093;51.424;11.764;2023-12-20T13:22:51;4.77;;;3.43;;
2173;SDS011;1093;51.424;11.764;2023-12-20T13:25:18;5.33;;;3.43;;
2173;SDS011;1093;51.424;11.764;2023-12-20T13:27:45;3.50;;;2.50;;
2173;SDS011;1093;51.424;11.764;2023-12-20T13:30:11;4.57;;;3.07;;
2173;SDS011;1093;51.424;11.764;2023-12-20T13:32:39;12.00;;;3.50;;
2173;SDS011;1093;51.424;11.764;2023-12-20T13:35:06;5.83;;;2.73;;
2173;SDS011;1093;51.424;11.764;2023-12-20T13:37:34;6.10;;;3.00;;
2173;SDS011;1093;51.424;11.764;2023-12-20T13:40:01;3.60;;;3.00;;
2173;SDS011;1093;51.424;11.764;2023-12-20T13:42:29;3.23;;;2.50;;
2173;SDS011;1093;51.424;11.764;2023-12-20T13:44:56;4.77;;;2.57;;
2173;SDS011;1093;51.424;11.764;2023-12-20T13:47:23;8.60;;;3.53;;
2173;SDS011;1093;51.424;11.764;2023-12-20T13:49:49;11.87;;;3.27;;
2173;SDS011;1093;51.424;11.764;2023-12-20T13:52:16;6.60;;;2.70;;
2173;SDS011;1093;51.424;11.764;2023-12-20T13:54:45;4.73;;;2.73;;
2173;SDS011;1093;51.424;11.764;2023-12-20T13:57:12;7.23;;;2.73;;
2173;SDS011;1093;51.424;11.764;2023-12-20T13:59:45;4.43;;;2.70;;
2173;SDS011;1093;51.424;11.764;2023-12-20T14:02:38;5.57;;;2.87;;
2173;SDS011;1093;51.424;11.764;2023-12-20T14:05:07;5.00;;;2.70;;
2173;SDS011;1093;51.424;11.764;2023-12-20T14:07:35;5.80;;;2.90;;
2173;SDS011;1093;51.424;11.764;2023-12-20T14:12:48;4.13;;;2.80;;
2173;SDS011;1093;51.424;11.764;2023-12-20T14:15:14;4.53;;;2.80;;
2173;SDS011;1093;51.424;11.764;2023-12-20T14:17:42;4.57;;;3.17;;
2173;SDS011;1093;51.424;11.764;2023-12-20T14:20:41;5.70;;;2.60;;
2173;SDS011;1093;51.424;11.764;2023-12-20T14:23:12;4.20;;;3.13;;
2173;SDS011;1093;51.424;11.764;2023-12-20T14:25:55;4.47;;;2.50;;
2173;SDS011;1093;51.424;11.764;2023-12-20T14:28:27;4.37;;;2.50;;
2173;SDS011;1093;51.424;11.764;2023-12-20T14:30:54;3.57;;;2.60;;
2173;SDS011;1093;51.424;11.764;2023-12-20T14:39:32;3.07;;;2.80;;
2173;SDS011;1093;51.424;11.764;2023-12-20T14:45:25;6.20;;;2.77;;
2173;SDS011;1093;51.424;11.764;2023-12-20T14:48:22;6.47;;;3.17;;
2173;SDS011;1093;51.424;11.764;2023-12-20T14:51:06;3.07;;;2.63;;
2173;SDS011;1093;51.424;11.764;2023-12-20T14:53:44;6.67;;;3.10;;
2173;SDS011;1093;51.424;11.764;2023-12-20T14:56:12;5.00;;;2.83;;
2173;SDS011;1093;51.424;11.764;2023-12-20T14:59:01;4.93;;;2.90;;
2173;SDS011;1093;51.424;11.764;2023-12-20T15:04:19;3.90;;;2.47;;
2173;SDS011;1093;51.424;11.764;2023-12-20T15:07:00;4.13;;;2.87;;
2173;SDS011;1093;51.424;11.764;2023-12-20T15:09:55;4.27;;;2.63;;
2173;SDS011;1093;51.424;11.764;2023-12-20T15:12:24;3.87;;;2.70;;
2173;SDS011;1093;51.424;11.764;2023-12-20T15:15:01;6.90;;;3.43;;
2173;SDS011;1093;51.424;11.764;2023-12-20T15:17:53;2.60;;;2.37;;
2173;SDS011;1093;51.424;11.764;2023-12-20T15:20:40;3.33;;;2.87;;
2173;SDS011;1093;51.424;11.764;2023-12-20T15:23:18;3.53;;;2.50;;
2173;SDS011;1093;51.424;11.764;2023-12-20T15:25:51;3.33;;;2.60;;
2173;SDS011;1093;51.424;11.764;2023-12-20T15:28:29;3.10;;;2.23;;
2173;SDS011;1093;51.424;11.764;2023-12-20T15:31:24;5.23;;;2.43;;
2173;SDS011;1093;51.424;11.764;2023-12-20T15:34:13;4.13;;;2.63;;
2173;SDS011;1093;51.424;11.764;2023-12-20T15:37:20;4.97;;;2.83;;
2173;SDS011;1093;51.424;11.764;2023-12-20T15:40:11;3.20;;;2.50;;
2173;SDS011;1093;51.424;11.764;2023-12-20T15:42:40;4.20;;;2.57;;
2173;SDS011;1093;51.424;11.764;2023-12-20T15:48:13;4.03;;;2.70;;
2173;SDS011;1093;51.424;11.764;2023-12-20T15:51:04;3.40;;;2.20;;
2173;SDS011;1093;51.424;11.764;2023-12-20T15:56:39;4.30;;;2.33;;
2173;SDS011;1093;51.424;11.764;2023-12-20T16:02:26;2.40;;;2.20;;
2173;SDS011;1093;51.424;11.764;2023-12-20T16:05:24;4.03;;;2.03;;
2173;SDS011;1093;51.424;11.764;2023-12-20T16:28:16;4.83;;;2.50;;
2173;SDS011;1093;51.424;11.764;2023-12-20T16:31:13;4.40;;;2.50;;
2173;SDS011;1093;51.424;11.764;2023-12-20T16:34:13;3.07;;;2.20;;
2173;SDS011;1093;51.424;11.764;2023-12-20T16:39:53;2.53;;;2.33;;
2173;SDS011;1093;51.424;11.764;2023-12-20T16:42:49;2.83;;;2.63;;
2173;SDS011;1093;51.424;11.764;2023-12-20T16:48:15;5.03;;;3.17;;
2173;SDS011;1093;51.424;11.764;2023-12-20T16:51:01;8.13;;;3.63;;
2173;SDS011;1093;51.424;11.764;2023-12-20T16:53:28;7.63;;;4.20;;
2173;SDS011;1093;51.424;11.764;2023-12-20T16:56:01;5.90;;;3.43;;
2173;SDS011;1093;51.424;11.764;2023-12-20T16:58:28;4.23;;;3.57;;
2173;SDS011;1093;51.424;11.764;2023-12-20T17:00:59;6.33;;;4.00;;
2173;SDS011;1093;51.424;11.764;2023-12-20T17:03:26;6.10;;;4.50;;
2173;SDS011;1093;51.424;11.764;2023-12-20T17:05:53;4.90;;;3.63;;
2173;SDS011;1093;51.424;11.764;2023-12-20T17:08:20;3.90;;;3.30;;
2173;SDS011;1093;51.424;11.764;2023-12-20T17:10:48;5.40;;;3.70;;
2173;SDS011;1093;51.424;11.764;2023-12-20T17:13:21;5.20;;;3.50;;
2173;SDS011;1093;51.424;11.764;2023-12-20T17:15:57;5.60;;;4.07;;
2173;SDS011;1093;51.424;11.764;2023-12-20T17:18:29;9.07;;;3.60;;
2173;SDS011;1093;51.424;11.764;2023-12-20T17:20:56;5.70;;;3.40;;
2173;SDS011;1093;51.424;11.764;2023-12-20T17:23:28;7.57;;;3.53;;
2173;SDS011;1093;51.424;11.764;2023-12-20T17:26:02;7.70;;;3.77;;
2173;SDS011;1093;51.424;11.764;2023-12-20T17:28:32;5.60;;;3.40;;
2173;SDS011;1093;51.424;11.764;2023-12-20T17:31:21;7.17;;;3.50;;
2173;SDS011;1093;51.424;11.764;2023-12-20T17:33:49;9.17;;;4.47;;
2173;SDS011;1093;51.424;11.764;2023-12-20T17:36:38;8.40;;;4.67;;
2173;SDS011;1093;51.424;11.764;2023-12-20T17:39:30;4.33;;;3.80;;
2173;SDS011;1093;51.424;11.764;2023-12-20T17:41:59;9.53;;;4.20;;
2173;SDS011;1093;51.424;11.764;2023-12-20T17:44:53;8.90;;;3.90;;
2173;SDS011;1093;51.424;11.764;2023-12-20T17:47:35;4.90;;;3.83;;
2173;SDS011;1093;51.424;11.764;2023-12-20T17:50:13;4.37;;;4.07;;
2173;SDS011;1093;51.424;11.764;2023-12-20T17:52:45;8.50;;;4.13;;
2173;SDS011;1093;51.424;11.764;2023-12-20T17:55:24;6.03;;;3.70;;
2173;SDS011;1093;51.424;11.764;2023-12-20T17:57:55;7.07;;;4.50;;
2173;SDS011;1093;51.424;11.764;2023-12-20T18:00:27;4.33;;;3.43;;
2173;SDS011;1093;51.424;11.764;2023-12-20T18:03:02;4.63;;;4.03;;
2173;SDS011;1093;51.424;11.764;2023-12-20T18:05:32;6.30;;;3.60;;
2173;SDS011;1093;51.424;11.764;2023-12-20T18:08:00;5.27;;;3.53;;
2173;SDS011;1093;51.424;11.764;2023-12-20T18:10:27;3.63;;;3.30;;
2173;SDS011;1093;51.424;11.764;2023-12-20T18:13:00;5.20;;;3.80;;
2173;SDS011;1093;51.424;11.764;2023-12-20T18:15:28;8.00;;;3.70;;
2173;SDS011;1093;51.424;11.764;2023-12-20T18:17:57;5.30;;;3.60;;
2173;SDS011;1093;51.424;11.764;2023-12-20T18:20:39;3.33;;;3.03;;
2173;SDS011;1093;51.424;11.764;2023-12-20T18:23:18;7.17;;;3.53;;
2173;SDS011;1093;51.424;11.764;2023-12-20T18:25:45;9.13;;;3.63;;
2173;SDS011;1093;51.424;11.764;2023-12-20T18:28:15;3.97;;;2.80;;
2173;SDS011;1093;51.424;11.764;2023-12-20T18:30:42;5.83;;;3.27;;
2173;SDS011;1093;51.424;11.764;2023-12-20T18:33:24;3.50;;;3.07;;
2173;SDS011;1093;51.424;11.764;2023-12-20T18:36:00;5.17;;;3.03;;
2173;SDS011;1093;51.424;11.764;2023-12-20T18:38:54;4.80;;;3.30;;
2173;SDS011;1093;51.424;11.764;2023-12-20T18:41:27;7.03;;;3.27;;
2173;SDS011;1093;51.424;11.764;2023-12-20T18:44:13;4.80;;;3.90;;
2173;SDS011;1093;51.424;11.764;2023-12-20T18:46:52;7.30;;;4.70;;
2173;SDS011;1093;51.424;11.764;2023-12-20T18:49:29;4.63;;;3.63;;
2173;SDS011;1093;51.424;11.764;2023-12-20T18:52:03;10.73;;;5.23;;
2173;SDS011;1093;51.424;11.764;2023-12-20T18:54:48;4.70;;;4.13;;
2173;SDS011;1093;51.424;11.764;2023-12-20T18:57:38;4.87;;;3.67;;
2173;SDS011;1093;51.424;11.764;2023-12-20T19:00:08;5.37;;;4.00;;
2173;SDS011;1093;51.424;11.764;2023-12-20T19:02:43;7.03;;;4.00;;
2173;SDS011;1093;51.424;11.764;2023-12-20T19:05:34;6.10;;;4.20;;
2173;SDS011;1093;51.424;11.764;2023-12-20T19:08:28;4.70;;;3.47;;
2173;SDS011;1093;51.424;11.764;2023-12-20T19:11:03;8.50;;;3.90;;
2173;SDS011;1093;51.424;11.764;2023-12-20T19:13:34;3.93;;;3.17;;
2173;SDS011;1093;51.424;11.764;2023-12-20T19:18:55;4.90;;;4.00;;
2173;SDS011;1093;51.424;11.764;2023-12-20T19:32:12;12.73;;;3.07;;
2173;SDS011;1093;51.424;11.764;2023-12-20T19:56:38;5.83;;;4.53;;
2173;SDS011;1093;51.424;11.764;2023-12-20T20:02:16;5.47;;;3.80;;
2173;SDS011;1093;51.424;11.764;2023-12-20T20:04:49;6.40;;;3.90;;
2173;SDS011;1093;51.424;11.764;2023-12-20T20:07:19;5.63;;;3.80;;
2173;SDS011;1093;51.424;11.764;2023-12-20T20:10:15;4.50;;;3.70;;
2173;SDS011;1093;51.424;11.764;2023-12-20T20:16:12;4.80;;;4.17;;
2173;SDS011;1093;51.424;11.764;2023-12-20T20:19:15;3.43;;;3.13;;
2173;SDS011;1093;51.424;11.764;2023-12-20T20:21:47;9.80;;;3.83;;
2173;SDS011;1093;51.424;11.764;2023-12-20T20:24:18;5.90;;;3.93;;
2173;SDS011;1093;51.424;11.764;2023-12-20T20:26:49;9.30;;;3.53;;
2173;SDS011;1093;51.424;11.764;2023-12-20T20:36:03;4.80;;;3.07;;
2173;SDS011;1093;51.424;11.764;2023-12-20T20:39:11;4.07;;;2.87;;
2173;SDS011;1093;51.424;11.764;2023-12-20T20:41:27;3.97;;;3.20;;
2173;SDS011;1093;51.424;11.764;2023-12-20T20:51:03;3.40;;;3.10;;
2173;SDS011;1093;51.424;11.764;2023-12-20T20:53:33;3.27;;;2.97;;
2173;SDS011;1093;51.424;11.764;2023-12-20T20:56:19;5.30;;;3.50;;
2173;SDS011;1093;51.424;11.764;2023-12-20T20:59:11;5.43;;;4.33;;
2173;SDS011;1093;51.424;11.764;2023-12-20T21:01:57;5.97;;;2.60;;
2173;SDS011;1093;51.424;11.764;2023-12-20T21:05:05;4.83;;;2.50;;
2173;SDS011;1093;51.424;11.764;2023-12-20T21:07:53;4.37;;;3.13;;
2173;SDS011;1093;51.424;11.764;2023-12-20T21:10:33;2.77;;;2.30;;
2173;SDS011;1093;51.424;11.764;2023-12-20T21:13:23;3.47;;;2.83;;
2173;SDS011;1093;51.424;11.764;2023-12-20T21:16:04;3.73;;;2.63;;
2173;SDS011;1093;51.424;11.764;2023-12-20T21:19:05;3.10;;;2.03;;
2173;SDS011;1093;51.424;11.764;2023-12-20T21:22:01;3.10;;;2.80;;
2173;SDS011;1093;51.424;11.764;2023-12-20T21:28:00;2.87;;;2.50;;
2173;SDS011;1093;51.424;11.764;2023-12-20T21:30:56;5.37;;;2.03;;